sensor_id;sensor_type;location;lat;lon;timestamp;pressure;altitude;pressure_sealevel;temperature;humidity
6833;BME280;3454;42.654;23.378;2023-02-11T00:01:12;96270.75;;;-1.49;78.93
6833;BME280;3454;42.654;23.378;2023-02-11T00:03:40;96246.41;;;-1.31;80.16
6833;BME280;3454;42.654;23.378;2023-02-11T00:06:07;96232.09;;;-1.15;80.50
6833;BME280;3454;42.654;23.378;2023-02-11T00:08:35;96278.00;;;-1.30;78.90
6833;BME280;3454;42.654;23.378;2023-02-11T00:11:01;96255.00;;;-1.51;79.66
6833;BME280;3454;42.654;23.378;2023-02-11T00:13:26;96233.59;;;-1.67;80.09
6833;BME280;3454;42.654;23.378;2023-02-11T00:15:53;96217.59;;;-1.51;80.97
6833;BME280;3454;42.654;23.378;2023-02-11T00:18:19;96259.91;;;-1.45;79.67
6833;BME280;3454;42.654;23.378;2023-02-11T00:20:45;96254.47;;;-1.75;78.93
6833;BME280;3454;42.654;23.378;2023-02-11T00:23:10;96249.63;;;-1.87;78.44
6833;BME280;3454;42.654;23.378;2023-02-11T00:25:40;96204.31;;;-1.53;81.56
6833;BME280;3454;42.654;23.378;2023-02-11T00:28:06;96266.28;;;-1.25;78.90
6833;BME280;3454;42.654;23.378;2023-02-11T00:30:32;96276.22;;;-1.20;78.70
6833;BME280;3454;42.654;23.378;2023-02-11T00:32:57;96290.25;;;-1.12;77.67
6833;BME280;3454;42.654;23.378;2023-02-11T00:35:23;96271.16;;;-1.16;77.17
6833;BME280;3454;42.654;23.378;2023-02-11T00:37:48;96269.81;;;-1.39;78.14
6833;BME280;3454;42.654;23.378;2023-02-11T00:40:14;96265.19;;;-1.68;78.45
6833;BME280;3454;42.654;23.378;2023-02-11T00:42:41;96263.66;;;-1.78;78.60
6833;BME280;3454;42.654;23.378;2023-02-11T00:45:06;96247.22;;;-1.94;78.59
6833;BME280;3454;42.654;23.378;2023-02-11T00:47:34;96225.31;;;-1.68;80.44
6833;BME280;3454;42.654;23.378;2023-02-11T00:50:00;96271.09;;;-1.77;78.12
6833;BME280;3454;42.654;23.378;2023-02-11T00:52:25;96277.78;;;-1.80;77.73
6833;BME280;3454;42.654;23.378;2023-02-11T00:54:51;96248.19;;;-2.09;78.73
6833;BME280;3454;42.654;23.378;2023-02-11T00:57:17;96201.91;;;-2.28;79.71
6833;BME280;3454;42.654;23.378;2023-02-11T00:59:42;96251.22;;;-1.83;78.54
6833;BME280;3454;42.654;23.378;2023-02-11T01:02:07;96202.72;;;-2.27;78.29
6833;BME280;3454;42.654;23.378;2023-02-11T01:04:33;96232.34;;;-2.02;78.95
6833;BME280;3454;42.654;23.378;2023-02-11T01:06:58;96246.78;;;-2.32;78.85
6833;BME280;3454;42.654;23.378;2023-02-11T01:09:24;96240.22;;;-2.41;78.76
6833;BME280;3454;42.654;23.378;2023-02-11T01:11:49;96196.00;;;-2.16;80.41
6833;BME280;3454;42.654;23.378;2023-02-11T01:14:15;96226.75;;;-2.23;79.52
6833;BME280;3454;42.654;23.378;2023-02-11T01:16:40;96213.31;;;-2.09;79.72
6833;BME280;3454;42.654;23.378;2023-02-11T01:19:05;96233.28;;;-2.12;78.68
6833;BME280;3454;42.654;23.378;2023-02-11T01:21:31;96219.28;;;-2.20;79.70
6833;BME280;3454;42.654;23.378;2023-02-11T01:23:56;96238.25;;;-2.09;78.43
6833;BME280;3454;42.654;23.378;2023-02-11T01:26:22;96204.72;;;-1.82;80.03
6833;BME280;3454;42.654;23.378;2023-02-11T01:28:47;96212.69;;;-1.57;80.12
6833;BME280;3454;42.654;23.378;2023-02-11T01:31:13;96239.16;;;-1.47;78.48
6833;BME280;3454;42.654;23.378;2023-02-11T01:33:39;96220.94;;;-1.52;79.75
6833;BME280;3454;42.654;23.378;2023-02-11T01:36:06;96242.38;;;-1.39;78.33
6833;BME280;3454;42.654;23.378;2023-02-11T01:38:32;96257.13;;;-1.88;77.36
6833;BME280;3454;42.654;23.378;2023-02-11T01:41:03;96220.00;;;-2.14;79.02
6833;BME280;3454;42.654;23.378;2023-02-11T01:43:34;96197.25;;;-1.84;80.21
6833;BME280;3454;42.654;23.378;2023-02-11T01:48:41;96267.13;;;-1.93;77.53
6833;BME280;3454;42.654;23.378;2023-02-11T01:54:04;96237.44;;;-2.12;77.92
6833;BME280;3454;42.654;23.378;2023-02-11T01:56:52;96156.91;;;-2.13;81.23
6833;BME280;3454;42.654;23.378;2023-02-11T01:59:44;96221.34;;;-1.84;79.07
6833;BME280;3454;42.654;23.378;2023-02-11T02:02:12;96224.59;;;-1.76;78.73
6833;BME280;3454;42.654;23.378;2023-02-11T02:04:54;96278.41;;;-1.63;76.30
6833;BME280;3454;42.654;23.378;2023-02-11T02:07:29;96270.13;;;-1.65;76.25
6833;BME280;3454;42.654;23.378;2023-02-11T02:10:02;96279.13;;;-1.52;75.90
6833;BME280;3454;42.654;23.378;2023-02-11T02:12:29;96229.31;;;-1.56;78.39
6833;BME280;3454;42.654;23.378;2023-02-11T02:17:56;96223.53;;;-1.58;79.02
6833;BME280;3454;42.654;23.378;2023-02-11T02:23:18;96298.94;;;-1.43;75.92
6833;BME280;3454;42.654;23.378;2023-02-11T02:32:25;96237.84;;;-1.76;77.96
6833;BME280;3454;42.654;23.378;2023-02-11T02:37:42;96194.66;;;-1.75;79.76
6833;BME280;3454;42.654;23.378;2023-02-11T02:40:22;96207.41;;;-2.02;79.24
6833;BME280;3454;42.654;23.378;2023-02-11T02:42:50;96192.84;;;-2.35;79.41
6833;BME280;3454;42.654;23.378;2023-02-11T02:45:15;96199.75;;;-2.61;79.38
6833;BME280;3454;42.654;23.378;2023-02-11T02:47:41;96181.38;;;-2.46;79.55
6833;BME280;3454;42.654;23.378;2023-02-11T02:50:07;96137.31;;;-2.40;81.69
6833;BME280;3454;42.654;23.378;2023-02-11T02:53:25;96190.78;;;-1.97;80.05
6833;BME280;3454;42.654;23.378;2023-02-11T02:55:53;96249.63;;;-1.90;77.28
6833;BME280;3454;42.654;23.378;2023-02-11T03:01:40;96331.78;;;-1.84;74.29
6833;BME280;3454;42.654;23.378;2023-02-11T03:04:24;96310.38;;;-1.98;75.20
6833;BME280;3454;42.654;23.378;2023-02-11T03:09:59;96307.91;;;-2.03;74.96
6833;BME280;3454;42.654;23.378;2023-02-11T03:12:28;96327.06;;;-2.09;73.69
6833;BME280;3454;42.654;23.378;2023-02-11T03:14:55;96281.59;;;-2.29;75.61
6833;BME280;3454;42.654;23.378;2023-02-11T03:17:22;96284.13;;;-2.31;75.31
6833;BME280;3454;42.654;23.378;2023-02-11T03:19:49;96273.41;;;-2.39;75.76
6833;BME280;3454;42.654;23.378;2023-02-11T03:22:26;96274.97;;;-2.29;75.86
6833;BME280;3454;42.654;23.378;2023-02-11T03:24:52;96247.63;;;-2.35;77.00
6833;BME280;3454;42.654;23.378;2023-02-11T03:30:13;96226.97;;;-2.43;78.01
6833;BME280;3454;42.654;23.378;2023-02-11T03:32:47;96213.69;;;-2.43;77.69
6833;BME280;3454;42.654;23.378;2023-02-11T03:35:20;96264.19;;;-2.31;76.34
6833;BME280;3454;42.654;23.378;2023-02-11T03:37:55;96269.13;;;-2.25;76.33
6833;BME280;3454;42.654;23.378;2023-02-11T03:40:28;96246.66;;;-2.19;77.05
6833;BME280;3454;42.654;23.378;2023-02-11T03:43:03;96277.13;;;-1.97;75.95
6833;BME280;3454;42.654;23.378;2023-02-11T03:45:31;96291.31;;;-2.04;76.24
6833;BME280;3454;42.654;23.378;2023-02-11T03:48:13;96242.44;;;-2.12;77.28
6833;BME280;3454;42.654;23.378;2023-02-11T03:50:40;96244.84;;;-2.08;77.36
6833;BME280;3454;42.654;23.378;2023-02-11T03:53:08;96256.38;;;-1.99;76.30
6833;BME280;3454;42.654;23.378;2023-02-11T03:55:37;96239.78;;;-1.99;76.82
6833;BME280;3454;42.654;23.378;2023-02-11T03:58:04;96272.00;;;-1.85;75.77
6833;BME280;3454;42.654;23.378;2023-02-11T04:00:34;96239.81;;;-2.02;77.49
6833;BME280;3454;42.654;23.378;2023-02-11T04:03:01;96202.50;;;-2.05;78.66
6833;BME280;3454;42.654;23.378;2023-02-11T04:05:26;96240.56;;;-1.92;76.97
6833;BME280;3454;42.654;23.378;2023-02-11T04:07:52;96199.22;;;-2.08;78.77
6833;BME280;3454;42.654;23.378;2023-02-11T04:10:17;96244.94;;;-2.12;76.84
6833;BME280;3454;42.654;23.378;2023-02-11T04:12:43;96214.19;;;-2.13;78.13
6833;BME280;3454;42.654;23.378;2023-02-11T04:15:08;96232.44;;;-2.11;77.54
6833;BME280;3454;42.654;23.378;2023-02-11T04:17:34;96205.19;;;-2.26;78.52
6833;BME280;3454;42.654;23.378;2023-02-11T04:19:59;96184.53;;;-2.32;79.30
6833;BME280;3454;42.654;23.378;2023-02-11T04:22:25;96215.88;;;-2.15;78.34
6833;BME280;3454;42.654;23.378;2023-02-11T04:24:50;96218.25;;;-2.06;78.19
6833;BME280;3454;42.654;23.378;2023-02-11T04:27:15;96220.72;;;-2.01;78.40
6833;BME280;3454;42.654;23.378;2023-02-11T04:29:41;96273.84;;;-1.99;75.96
6833;BME280;3454;42.654;23.378;2023-02-11T04:32:08;96292.06;;;-1.96;75.39
6833;BME280;3454;42.654;23.378;2023-02-11T04:34:33;96326.09;;;-1.95;73.64
6833;BME280;3454;42.654;23.378;2023-02-11T04:36:58;96332.84;;;-2.06;73.79
6833;BME280;3454;42.654;23.378;2023-02-11T04:39:24;96328.91;;;-2.29;73.20
6833;BME280;3454;42.654;23.378;2023-02-11T04:41:49;96314.16;;;-2.52;74.03
6833;BME280;3454;42.654;23.378;2023-02-11T04:44:15;96286.13;;;-2.77;74.85
6833;BME280;3454;42.654;23.378;2023-02-11T04:46:40;96240.59;;;-2.86;76.36
6833;BME280;3454;42.654;23.378;2023-02-11T04:49:06;96262.31;;;-3.08;75.82
6833;BME280;3454;42.654;23.378;2023-02-11T04:51:31;96244.03;;;-2.99;76.65
6833;BME280;3454;42.654;23.378;2023-02-11T04:53:57;96255.69;;;-3.10;75.62
6833;BME280;3454;42.654;23.378;2023-02-11T04:56:22;96226.72;;;-3.16;76.85
6833;BME280;3454;42.654;23.378;2023-02-11T04:58:47;96230.06;;;-3.18;76.80
6833;BME280;3454;42.654;23.378;2023-02-11T05:01:14;96250.69;;;-3.01;76.24
6833;BME280;3454;42.654;23.378;2023-02-11T05:03:40;96228.31;;;-3.06;76.74
6833;BME280;3454;42.654;23.378;2023-02-11T05:06:06;96242.44;;;-3.09;76.31
6833;BME280;3454;42.654;23.378;2023-02-11T05:08:32;96258.97;;;-3.04;75.02
6833;BME280;3454;42.654;23.378;2023-02-11T05:10:58;96250.78;;;-3.21;75.59
6833;BME280;3454;42.654;23.378;2023-02-11T05:13:23;96238.41;;;-3.25;75.93
6833;BME280;3454;42.654;23.378;2023-02-11T05:15:49;96244.19;;;-3.26;76.07
6833;BME280;3454;42.654;23.378;2023-02-11T05:18:14;96193.59;;;-3.21;77.39
6833;BME280;3454;42.654;23.378;2023-02-11T05:20:43;96186.97;;;-3.20;77.54
6833;BME280;3454;42.654;23.378;2023-02-11T05:23:09;96200.19;;;-3.12;77.29
6833;BME280;3454;42.654;23.378;2023-02-11T05:25:35;96176.94;;;-3.08;78.52
6833;BME280;3454;42.654;23.378;2023-02-11T05:28:01;96229.03;;;-2.92;76.20
6833;BME280;3454;42.654;23.378;2023-02-11T05:30:27;96228.28;;;-3.04;76.14
6833;BME280;3454;42.654;23.378;2023-02-11T05:32:52;96222.53;;;-3.08;76.80
6833;BME280;3454;42.654;23.378;2023-02-11T05:35:17;96206.75;;;-3.05;77.11
6833;BME280;3454;42.654;23.378;2023-02-11T05:37:43;96248.19;;;-3.04;75.80
6833;BME280;3454;42.654;23.378;2023-02-11T05:40:09;96237.53;;;-3.21;76.22
6833;BME280;3454;42.654;23.378;2023-02-11T05:42:34;96207.84;;;-3.39;76.80
6833;BME280;3454;42.654;23.378;2023-02-11T05:45:00;96204.47;;;-3.32;77.40
6833;BME280;3454;42.654;23.378;2023-02-11T05:47:25;96174.63;;;-3.29;78.62
6833;BME280;3454;42.654;23.378;2023-02-11T05:49:51;96172.84;;;-3.15;78.35
6833;BME280;3454;42.654;23.378;2023-02-11T05:52:18;96169.41;;;-3.01;78.83
6833;BME280;3454;42.654;23.378;2023-02-11T05:54:43;96143.91;;;-3.22;79.98
6833;BME280;3454;42.654;23.378;2023-02-11T05:57:09;96142.31;;;-3.32;80.15
6833;BME280;3454;42.654;23.378;2023-02-11T05:59:34;96181.03;;;-3.01;78.47
6833;BME280;3454;42.654;23.378;2023-02-11T06:01:59;96209.19;;;-3.01;77.77
6833;BME280;3454;42.654;23.378;2023-02-11T06:04:25;96196.84;;;-3.13;78.21
6833;BME280;3454;42.654;23.378;2023-02-11T06:06:50;96203.44;;;-3.06;78.41
6833;BME280;3454;42.654;23.378;2023-02-11T06:09:17;96199.34;;;-3.14;78.24
6833;BME280;3454;42.654;23.378;2023-02-11T06:11:42;96220.91;;;-3.16;77.76
6833;BME280;3454;42.654;23.378;2023-02-11T06:14:08;96220.09;;;-3.18;78.11
6833;BME280;3454;42.654;23.378;2023-02-11T06:16:34;96209.28;;;-3.13;78.26
6833;BME280;3454;42.654;23.378;2023-02-11T06:18:59;96234.88;;;-2.97;77.26
6833;BME280;3454;42.654;23.378;2023-02-11T06:21:25;96200.00;;;-2.93;78.70
6833;BME280;3454;42.654;23.378;2023-02-11T06:23:50;96249.69;;;-2.79;76.70
6833;BME280;3454;42.654;23.378;2023-02-11T06:26:20;96215.66;;;-2.80;77.84
6833;BME280;3454;42.654;23.378;2023-02-11T06:28:45;96290.16;;;-2.62;75.44
6833;BME280;3454;42.654;23.378;2023-02-11T06:31:11;96278.63;;;-2.69;74.47
6833;BME280;3454;42.654;23.378;2023-02-11T06:33:37;96296.78;;;-2.57;74.78
6833;BME280;3454;42.654;23.378;2023-02-11T06:36:04;96255.31;;;-2.59;76.22
6833;BME280;3454;42.654;23.378;2023-02-11T06:38:36;96285.19;;;-2.62;74.91
6833;BME280;3454;42.654;23.378;2023-02-11T06:41:01;96273.47;;;-2.49;74.84
6833;BME280;3454;42.654;23.378;2023-02-11T06:43:27;96303.31;;;-2.45;74.37
6833;BME280;3454;42.654;23.378;2023-02-11T06:45:53;96296.56;;;-2.34;74.88
6833;BME280;3454;42.654;23.378;2023-02-11T06:48:19;96256.72;;;-2.31;76.61
6833;BME280;3454;42.654;23.378;2023-02-11T06:50:44;96219.34;;;-2.29;77.97
6833;BME280;3454;42.654;23.378;2023-02-11T06:53:10;96249.31;;;-2.37;77.04
6833;BME280;3454;42.654;23.378;2023-02-11T06:55:36;96237.63;;;-2.29;76.15
6833;BME280;3454;42.654;23.378;2023-02-11T06:58:01;96251.63;;;-2.19;77.05
6833;BME280;3454;42.654;23.378;2023-02-11T07:00:33;96236.88;;;-2.37;77.75
6833;BME280;3454;42.654;23.378;2023-02-11T07:02:58;96229.06;;;-2.05;77.94
6833;BME280;3454;42.654;23.378;2023-02-11T07:05:23;96229.84;;;-2.00;77.89
6833;BME280;3454;42.654;23.378;2023-02-11T07:07:49;96216.53;;;-1.99;78.71
6833;BME280;3454;42.654;23.378;2023-02-11T07:10:14;96214.56;;;-2.49;78.31
6833;BME280;3454;42.654;23.378;2023-02-11T07:12:40;96180.81;;;-2.79;79.83
6833;BME280;3454;42.654;23.378;2023-02-11T07:15:05;96156.94;;;-2.96;80.14
6833;BME280;3454;42.654;23.378;2023-02-11T07:17:31;96066.63;;;-3.00;83.09
6833;BME280;3454;42.654;23.378;2023-02-11T07:19:58;96158.38;;;-2.71;80.34
6833;BME280;3454;42.654;23.378;2023-02-11T07:22:24;96126.59;;;-2.45;82.03
6833;BME280;3454;42.654;23.378;2023-02-11T07:24:49;95809.13;;;-1.70;100.00
6833;BME280;3454;42.654;23.378;2023-02-11T07:27:15;96027.78;;;-0.85;100.00
6833;BME280;3454;42.654;23.378;2023-02-11T07:29:41;96360.03;;;-1.06;100.00
6833;BME280;3454;42.654;23.378;2023-02-11T07:32:07;96373.53;;;-1.25;100.00
6833;BME280;3454;42.654;23.378;2023-02-11T07:34:32;96380.88;;;-1.10;100.00
6833;BME280;3454;42.654;23.378;2023-02-11T07:36:58;96337.34;;;-0.89;100.00
6833;BME280;3454;42.654;23.378;2023-02-11T07:39:23;96371.72;;;-1.09;83.55
6833;BME280;3454;42.654;23.378;2023-02-11T07:41:52;96339.09;;;-0.96;84.07
6833;BME280;3454;42.654;23.378;2023-02-11T07:44:17;96336.78;;;-1.09;83.94
6833;BME280;3454;42.654;23.378;2023-02-11T07:46:43;96369.97;;;-1.04;81.70
6833;BME280;3454;42.654;23.378;2023-02-11T07:49:10;96369.25;;;-1.12;81.80
6833;BME280;3454;42.654;23.378;2023-02-11T07:51:36;96401.59;;;-1.03;79.92
6833;BME280;3454;42.654;23.378;2023-02-11T07:54:01;96364.63;;;-1.45;81.59
6833;BME280;3454;42.654;23.378;2023-02-11T07:56:28;96378.91;;;-1.59;80.11
6833;BME280;3454;42.654;23.378;2023-02-11T07:58:54;96160.19;;;-0.92;89.66
6833;BME280;3454;42.654;23.378;2023-02-11T08:01:24;96402.97;;;-0.82;76.54
6833;BME280;3454;42.654;23.378;2023-02-11T08:03:53;96392.41;;;-1.01;75.52
6833;BME280;3454;42.654;23.378;2023-02-11T08:06:20;96373.03;;;-0.84;75.25
6833;BME280;3454;42.654;23.378;2023-02-11T08:08:46;96417.44;;;-1.09;73.87
6833;BME280;3454;42.654;23.378;2023-02-11T08:11:18;96392.75;;;-1.33;73.98
6833;BME280;3454;42.654;23.378;2023-02-11T08:13:45;96377.72;;;-1.27;74.29
6833;BME280;3454;42.654;23.378;2023-02-11T08:16:32;96421.13;;;-0.70;72.51
6833;BME280;3454;42.654;23.378;2023-02-11T08:19:00;96423.34;;;-0.50;72.54
6833;BME280;3454;42.654;23.378;2023-02-11T08:21:26;96414.16;;;-0.47;71.63
6833;BME280;3454;42.654;23.378;2023-02-11T08:23:53;96399.34;;;-0.03;72.97
6833;BME280;3454;42.654;23.378;2023-02-11T08:26:21;96465.16;;;-0.04;70.44
6833;BME280;3454;42.654;23.378;2023-02-11T08:28:49;96489.75;;;0.24;69.25
6833;BME280;3454;42.654;23.378;2023-02-11T08:31:18;96502.59;;;0.53;68.67
6833;BME280;3454;42.654;23.378;2023-02-11T08:33:44;96524.41;;;0.46;67.27
6833;BME280;3454;42.654;23.378;2023-02-11T08:36:16;96544.66;;;0.83;66.51
6833;BME280;3454;42.654;23.378;2023-02-11T08:38:42;96556.94;;;1.42;65.31
6833;BME280;3454;42.654;23.378;2023-02-11T08:41:08;96561.41;;;1.71;65.82
6833;BME280;3454;42.654;23.378;2023-02-11T08:43:34;96657.66;;;2.46;61.39
6833;BME280;3454;42.654;23.378;2023-02-11T08:46:01;96664.19;;;2.53;60.69
6833;BME280;3454;42.654;23.378;2023-02-11T08:48:27;96667.28;;;3.03;60.13
6833;BME280;3454;42.654;23.378;2023-02-11T08:50:54;96586.66;;;2.41;58.97
6833;BME280;3454;42.654;23.378;2023-02-11T08:53:19;96481.13;;;3.72;68.52
6833;BME280;3454;42.654;23.378;2023-02-11T08:55:49;96579.38;;;3.96;57.35
6833;BME280;3454;42.654;23.378;2023-02-11T08:58:14;96593.50;;;4.02;55.39
6833;BME280;3454;42.654;23.378;2023-02-11T09:00:40;96567.38;;;4.34;55.19
6833;BME280;3454;42.654;23.378;2023-02-11T09:03:07;96578.72;;;4.74;54.00
6833;BME280;3454;42.654;23.378;2023-02-11T09:05:33;96557.91;;;4.14;53.44
6833;BME280;3454;42.654;23.378;2023-02-11T09:07:58;96518.56;;;3.82;55.07
6833;BME280;3454;42.654;23.378;2023-02-11T09:10:23;96304.50;;;5.10;79.37
6833;BME280;3454;42.654;23.378;2023-02-11T09:12:49;96568.88;;;4.39;55.04
6833;BME280;3454;42.654;23.378;2023-02-11T09:15:14;96489.47;;;3.45;56.14
6833;BME280;3454;42.654;23.378;2023-02-11T09:17:40;96438.19;;;3.21;56.90
6833;BME280;3454;42.654;23.378;2023-02-11T09:20:06;96424.19;;;3.41;57.86
6833;BME280;3454;42.654;23.378;2023-02-11T09:22:31;96464.19;;;3.78;56.50
6833;BME280;3454;42.654;23.378;2023-02-11T09:24:56;96431.34;;;4.10;57.03
6833;BME280;3454;42.654;23.378;2023-02-11T09:27:22;96442.22;;;5.13;57.28
6833;BME280;3454;42.654;23.378;2023-02-11T09:29:47;96551.38;;;5.15;51.95
6833;BME280;3454;42.654;23.378;2023-02-11T09:32:13;96528.41;;;5.22;51.99
6833;BME280;3454;42.654;23.378;2023-02-11T09:34:38;96574.88;;;5.89;50.31
6833;BME280;3454;42.654;23.378;2023-02-11T09:37:03;96439.56;;;4.92;50.00
6833;BME280;3454;42.654;23.378;2023-02-11T09:39:29;96549.06;;;5.81;49.62
6833;BME280;3454;42.654;23.378;2023-02-11T09:44:32;96580.38;;;6.66;47.42
6833;BME280;3454;42.654;23.378;2023-02-11T09:49:50;96602.47;;;6.83;45.26
6833;BME280;3454;42.654;23.378;2023-02-11T09:52:39;96558.94;;;6.76;46.52
6833;BME280;3454;42.654;23.378;2023-02-11T09:55:20;96558.53;;;5.51;45.11
6833;BME280;3454;42.654;23.378;2023-02-11T09:57:45;96483.72;;;6.18;47.38
6833;BME280;3454;42.654;23.378;2023-02-11T10:00:39;96557.16;;;6.14;45.04
6833;BME280;3454;42.654;23.378;2023-02-11T10:08:45;96523.28;;;5.96;45.19
6833;BME280;3454;42.654;23.378;2023-02-11T10:11:20;96534.25;;;6.61;44.78
6833;BME280;3454;42.654;23.378;2023-02-11T10:14:17;96557.59;;;6.46;43.24
6833;BME280;3454;42.654;23.378;2023-02-11T10:22:08;96560.03;;;7.51;42.22
6833;BME280;3454;42.654;23.378;2023-02-11T10:24:36;96514.97;;;7.41;43.05
6833;BME280;3454;42.654;23.378;2023-02-11T10:27:16;96512.88;;;6.90;42.35
6833;BME280;3454;42.654;23.378;2023-02-11T10:30:00;96470.94;;;6.23;43.21
6833;BME280;3454;42.654;23.378;2023-02-11T10:32:40;96499.56;;;7.07;42.43
6833;BME280;3454;42.654;23.378;2023-02-11T10:35:20;96498.13;;;6.79;42.01
6833;BME280;3454;42.654;23.378;2023-02-11T10:37:47;96573.06;;;7.62;38.63
6833;BME280;3454;42.654;23.378;2023-02-11T10:40:27;96538.94;;;7.71;39.32
6833;BME280;3454;42.654;23.378;2023-02-11T10:43:00;96529.16;;;8.57;38.55
6833;BME280;3454;42.654;23.378;2023-02-11T10:45:36;96572.13;;;8.77;37.41
6833;BME280;3454;42.654;23.378;2023-02-11T10:48:04;96484.25;;;8.41;38.55
6833;BME280;3454;42.654;23.378;2023-02-11T10:50:34;96471.19;;;7.76;38.31
6833;BME280;3454;42.654;23.378;2023-02-11T10:53:19;96471.22;;;8.49;37.90
6833;BME280;3454;42.654;23.378;2023-02-11T10:55:50;96500.66;;;8.52;37.12
6833;BME280;3454;42.654;23.378;2023-02-11T10:58:27;96470.09;;;8.55;37.00
6833;BME280;3454;42.654;23.378;2023-02-11T11:00:54;96490.63;;;8.67;37.04
6833;BME280;3454;42.654;23.378;2023-02-11T11:03:23;96471.59;;;8.93;36.79
6833;BME280;3454;42.654;23.378;2023-02-11T11:05:55;96428.06;;;8.68;38.22
6833;BME280;3454;42.654;23.378;2023-02-11T11:08:21;96488.31;;;8.80;36.15
6833;BME280;3454;42.654;23.378;2023-02-11T11:11:04;96468.56;;;8.69;36.37
6833;BME280;3454;42.654;23.378;2023-02-11T11:13:39;96463.59;;;7.39;36.17
6833;BME280;3454;42.654;23.378;2023-02-11T11:16:07;96446.91;;;7.53;36.76
6833;BME280;3454;42.654;23.378;2023-02-11T11:18:33;96429.56;;;8.19;37.60
6833;BME280;3454;42.654;23.378;2023-02-11T11:21:00;96453.34;;;8.52;35.66
6833;BME280;3454;42.654;23.378;2023-02-11T11:23:28;96465.56;;;8.44;35.32
6833;BME280;3454;42.654;23.378;2023-02-11T11:28:31;96413.00;;;8.82;36.44
6833;BME280;3454;42.654;23.378;2023-02-11T11:30:58;96422.22;;;9.17;36.22
6833;BME280;3454;42.654;23.378;2023-02-11T11:33:29;96448.25;;;9.36;35.74
6833;BME280;3454;42.654;23.378;2023-02-11T11:35:59;96427.84;;;9.70;36.04
6833;BME280;3454;42.654;23.378;2023-02-11T11:38:27;96462.34;;;9.74;34.92
6833;BME280;3454;42.654;23.378;2023-02-11T11:41:32;96451.13;;;9.94;34.75
6833;BME280;3454;42.654;23.378;2023-02-11T11:46:37;96430.66;;;9.81;34.59
6833;BME280;3454;42.654;23.378;2023-02-11T11:49:27;96376.47;;;8.34;36.35
6833;BME280;3454;42.654;23.378;2023-02-11T11:52:01;96388.50;;;8.81;35.35
6833;BME280;3454;42.654;23.378;2023-02-11T11:54:35;96399.69;;;9.11;35.25
6833;BME280;3454;42.654;23.378;2023-02-11T11:57:16;96379.63;;;8.89;34.78
6833;BME280;3454;42.654;23.378;2023-02-11T11:59:43;96346.00;;;8.00;36.11
6833;BME280;3454;42.654;23.378;2023-02-11T12:05:26;96398.38;;;9.19;34.02
6833;BME280;3454;42.654;23.378;2023-02-11T12:10:56;96319.88;;;9.16;36.25
6833;BME280;3454;42.654;23.378;2023-02-11T12:27:15;96355.25;;;11.15;33.88
6833;BME280;3454;42.654;23.378;2023-02-11T12:30:25;96326.22;;;10.01;34.03
6833;BME280;3454;42.654;23.378;2023-02-11T12:35:51;96262.34;;;9.17;35.62
6833;BME280;3454;42.654;23.378;2023-02-11T12:44:05;96260.28;;;8.92;34.98
6833;BME280;3454;42.654;23.378;2023-02-11T12:55:25;96331.91;;;9.13;32.36
6833;BME280;3454;42.654;23.378;2023-02-11T12:57:55;96282.50;;;8.39;33.69
6833;BME280;3454;42.654;23.378;2023-02-11T13:03:11;96296.94;;;8.54;33.35
6833;BME280;3454;42.654;23.378;2023-02-11T13:08:31;96219.56;;;7.97;34.89
6833;BME280;3454;42.654;23.378;2023-02-11T13:11:01;96244.88;;;8.31;34.46
6833;BME280;3454;42.654;23.378;2023-02-11T13:13:34;96216.94;;;8.48;34.89
6833;BME280;3454;42.654;23.378;2023-02-11T13:16:06;96246.69;;;8.78;33.63
6833;BME280;3454;42.654;23.378;2023-02-11T13:21:18;96217.69;;;8.51;34.51
6833;BME280;3454;42.654;23.378;2023-02-11T13:26:59;96225.75;;;9.66;33.94
6833;BME280;3454;42.654;23.378;2023-02-11T13:32:12;96245.63;;;9.89;33.34
6833;BME280;3454;42.654;23.378;2023-02-11T13:37:19;96295.34;;;9.78;32.12
6833;BME280;3454;42.654;23.378;2023-02-11T13:40:04;96275.44;;;9.09;32.34
6833;BME280;3454;42.654;23.378;2023-02-11T13:42:33;96261.06;;;8.62;32.27
6833;BME280;3454;42.654;23.378;2023-02-11T13:45:29;96221.06;;;8.67;33.87
6833;BME280;3454;42.654;23.378;2023-02-11T13:47:59;96218.78;;;8.62;33.35
6833;BME280;3454;42.654;23.378;2023-02-11T13:50:26;96198.94;;;7.88;33.46
6833;BME280;3454;42.654;23.378;2023-02-11T13:53:02;96176.16;;;7.53;35.00
6833;BME280;3454;42.654;23.378;2023-02-11T13:55:28;96209.38;;;7.82;33.37
6833;BME280;3454;42.654;23.378;2023-02-11T14:11:51;96185.78;;;7.11;33.17
6833;BME280;3454;42.654;23.378;2023-02-11T14:14:26;96189.38;;;7.24;33.61
6833;BME280;3454;42.654;23.378;2023-02-11T14:17:25;96198.41;;;7.47;33.45
6833;BME280;3454;42.654;23.378;2023-02-11T14:19:52;96193.47;;;6.91;33.75
6833;BME280;3454;42.654;23.378;2023-02-11T14:22:27;96179.09;;;7.27;33.33
6833;BME280;3454;42.654;23.378;2023-02-11T14:24:58;96178.69;;;7.71;33.76
6833;BME280;3454;42.654;23.378;2023-02-11T14:30:18;96175.09;;;7.57;33.97
6833;BME280;3454;42.654;23.378;2023-02-11T14:40:33;96125.53;;;7.02;34.95
6833;BME280;3454;42.654;23.378;2023-02-11T14:43:25;96121.44;;;7.00;34.68
6833;BME280;3454;42.654;23.378;2023-02-11T14:45:55;96059.22;;;6.07;36.05
6833;BME280;3454;42.654;23.378;2023-02-11T14:48:33;96016.78;;;5.59;37.85
6833;BME280;3454;42.654;23.378;2023-02-11T14:53:29;95999.69;;;5.46;38.88
6833;BME280;3454;42.654;23.378;2023-02-11T14:55:55;95998.78;;;5.28;39.11
6833;BME280;3454;42.654;23.378;2023-02-11T14:58:24;95979.41;;;5.10;39.80
6833;BME280;3454;42.654;23.378;2023-02-11T15:00:53;95965.47;;;5.01;40.60
6833;BME280;3454;42.654;23.378;2023-02-11T15:03:36;95954.41;;;4.85;40.19
6833;BME280;3454;42.654;23.378;2023-02-11T15:06:15;95931.91;;;4.81;41.41
6833;BME280;3454;42.654;23.378;2023-02-11T15:08:46;95927.22;;;5.12;41.24
6833;BME280;3454;42.654;23.378;2023-02-11T15:11:16;95927.91;;;5.16;40.90
6833;BME280;3454;42.654;23.378;2023-02-11T15:13:43;95922.78;;;4.98;41.04
6833;BME280;3454;42.654;23.378;2023-02-11T15:16:13;95910.72;;;4.86;42.01
6833;BME280;3454;42.654;23.378;2023-02-11T15:18:45;95876.09;;;4.51;41.38
6833;BME280;3454;42.654;23.378;2023-02-11T15:21:22;95882.13;;;4.47;42.72
6833;BME280;3454;42.654;23.378;2023-02-11T15:24:00;95886.25;;;4.50;42.50
6833;BME280;3454;42.654;23.378;2023-02-11T15:26:27;95862.41;;;4.38;43.39
6833;BME280;3454;42.654;23.378;2023-02-11T15:28:53;95860.06;;;4.34;43.24
6833;BME280;3454;42.654;23.378;2023-02-11T15:31:22;95846.03;;;4.48;44.16
6833;BME280;3454;42.654;23.378;2023-02-11T15:33:48;95847.66;;;4.29;43.95
6833;BME280;3454;42.654;23.378;2023-02-11T15:36:15;95861.50;;;4.39;43.70
6833;BME280;3454;42.654;23.378;2023-02-11T15:38:42;95867.47;;;4.37;43.62